createdAt,value
2019-02-25T02:33:39.795Z,5.70
2019-02-25T02:36:11.602Z,4.17
2019-02-25T02:38:40.102Z,5.47
2019-02-25T02:41:09.254Z,4.77
2019-02-25T02:43:38.397Z,4.60
2019-02-25T02:46:41.836Z,5.27
2019-02-25T02:49:11.336Z,4.90
2019-02-25T02:51:40.567Z,5.07
2019-02-25T02:54:09.699Z,5.23
2019-02-25T02:56:38.835Z,5.37
2019-02-25T02:59:07.999Z,5.63
2019-02-25T03:01:37.235Z,5.80
2019-02-25T03:04:06.350Z,5.30
2019-02-25T03:06:35.491Z,5.17
2019-02-25T03:09:06.910Z,5.40
2019-02-25T03:11:36.580Z,6.60
2019-02-25T03:14:05.687Z,6.40
2019-02-25T03:16:35.091Z,6.07
2019-02-25T03:19:04.305Z,6.07
2019-02-25T03:21:33.426Z,6.63
2019-02-25T03:24:02.560Z,5.50
2019-02-25T03:26:31.693Z,4.60
2019-02-25T03:29:02.768Z,4.57
2019-02-25T03:31:31.886Z,4.67
2019-02-25T03:34:00.992Z,6.17
2019-02-25T03:36:30.765Z,5.87
2019-02-25T03:38:59.913Z,6.10
2019-02-25T03:41:31.763Z,6.03
2019-02-25T03:44:00.883Z,5.73
2019-02-25T03:46:30.723Z,4.43
2019-02-25T03:48:59.858Z,4.00
2019-02-25T03:51:29.034Z,4.83
2019-02-25T03:53:58.148Z,5.63
2019-02-25T03:56:27.262Z,4.27
2019-02-25T03:58:56.703Z,5.13
2019-02-25T04:01:25.900Z,4.27
2019-02-25T04:03:55.059Z,5.40
2019-02-25T04:06:24.147Z,5.57
2019-02-25T04:08:53.304Z,6.00
2019-02-25T04:11:22.481Z,5.07
2019-02-25T04:13:51.628Z,5.30
2019-02-25T04:16:20.781Z,4.77
2019-02-25T04:18:49.894Z,4.13
2019-02-25T04:21:19.016Z,5.03
2019-02-25T04:23:48.480Z,4.80
2019-02-25T04:26:17.649Z,4.87
2019-02-25T04:28:46.753Z,5.57
2019-02-25T04:31:15.928Z,4.50
2019-02-25T04:33:45.082Z,5.67
2019-02-25T04:36:14.208Z,4.47
2019-02-25T04:38:43.281Z,5.13
2019-02-25T04:41:12.387Z,4.53
2019-02-25T04:43:41.483Z,5.77
2019-02-25T04:46:10.599Z,5.40
2019-02-25T04:48:39.683Z,5.57
2019-02-25T04:51:08.878Z,4.90
2019-02-25T04:53:37.982Z,4.33
2019-02-25T04:56:07.163Z,5.00
2019-02-25T04:58:36.260Z,6.50
2019-02-25T05:01:05.363Z,6.00
2019-02-25T05:03:34.479Z,5.50
2019-02-25T05:06:04.545Z,4.97
2019-02-25T05:08:33.639Z,4.80
2019-02-25T05:11:03.646Z,5.20
2019-02-25T05:13:32.733Z,5.60
2019-02-25T05:16:01.831Z,4.63
2019-02-25T05:18:30.940Z,5.60
2019-02-25T05:21:00.076Z,4.20
2019-02-25T05:23:29.791Z,5.03
2019-02-25T05:25:58.900Z,5.20
2019-02-25T05:28:28.005Z,5.40
2019-02-25T05:30:57.124Z,5.13
2019-02-25T05:33:26.284Z,7.47
2019-02-25T05:35:55.401Z,6.53
2019-02-25T05:38:24.488Z,7.80
2019-02-25T05:40:53.608Z,4.53
2019-02-25T05:43:23.751Z,4.93
2019-02-25T05:45:52.883Z,4.93
2019-02-25T05:48:21.977Z,5.80
2019-02-25T05:50:51.368Z,4.20
2019-02-25T05:53:20.479Z,4.13
2019-02-25T05:55:49.588Z,6.07
2019-02-25T05:58:18.691Z,4.70
2019-02-25T06:00:47.970Z,5.93
2019-02-25T06:03:18.079Z,4.70
2019-02-25T06:05:47.190Z,4.73
2019-02-25T06:08:16.292Z,4.83
2019-02-25T06:10:45.383Z,7.20
2019-02-25T06:13:14.495Z,5.60
2019-02-25T06:15:43.872Z,5.47
2019-02-25T06:18:12.962Z,5.27
2019-02-25T06:20:42.071Z,5.93
2019-02-25T06:23:11.164Z,5.83
2019-02-25T06:25:40.277Z,7.60
2019-02-25T06:28:09.365Z,6.47
2019-02-25T06:30:38.478Z,8.10
2019-02-25T06:33:07.568Z,9.67
2019-02-25T06:35:36.664Z,6.17
2019-02-25T06:38:05.779Z,5.13
2019-02-25T06:40:34.872Z,5.70
2019-02-25T06:43:04.487Z,4.40
2019-02-25T06:45:38.152Z,6.47
2019-02-25T06:48:07.264Z,5.20
2019-02-25T06:50:36.372Z,6.40
2019-02-25T06:53:05.465Z,5.57
2019-02-25T06:55:34.581Z,7.37
2019-02-25T06:58:03.674Z,5.50
2019-02-25T07:00:32.770Z,5.63
2019-02-25T07:03:02.953Z,5.23
2019-02-25T07:05:42.583Z,6.10
2019-02-25T07:08:16.223Z,7.60
2019-02-25T07:10:52.997Z,5.87
2019-02-25T07:13:29.540Z,6.33
2019-02-25T07:16:00.276Z,4.97
2019-02-25T07:18:49.072Z,4.67
2019-02-25T07:21:19.803Z,5.00
2019-02-25T07:23:59.343Z,7.63
2019-02-25T07:26:38.958Z,6.47
2019-02-25T07:29:21.552Z,6.10
2019-02-25T07:32:03.195Z,7.43
2019-02-25T07:34:33.949Z,4.53
2019-02-25T07:37:05.060Z,7.97
2019-02-25T07:39:35.814Z,4.90
2019-02-25T07:42:24.844Z,5.07
2019-02-25T07:44:58.180Z,9.10
2019-02-25T07:47:28.922Z,6.77
2019-02-25T07:50:08.676Z,4.67
2019-02-25T07:52:42.368Z,9.07
2019-02-25T07:55:15.791Z,5.90
2019-02-25T07:57:52.491Z,5.27
2019-02-25T08:00:41.525Z,5.70
2019-02-25T08:03:24.225Z,8.53
2019-02-25T08:06:12.070Z,5.40
2019-02-25T08:08:58.232Z,5.97
2019-02-25T08:11:40.947Z,6.23
2019-02-25T08:14:14.594Z,6.00
2019-02-25T08:16:45.339Z,7.20
2019-02-25T08:19:16.411Z,5.27
2019-02-25T08:21:55.910Z,7.37
2019-02-25T08:24:43.115Z,22.40
2019-02-25T08:27:13.871Z,9.33
2019-02-25T08:29:44.619Z,5.93
2019-02-25T08:32:24.247Z,5.00
2019-02-25T08:34:55.003Z,5.40
2019-02-25T08:37:46.819Z,6.30
2019-02-25T08:40:35.469Z,8.70
2019-02-25T08:43:10.708Z,6.20
2019-02-25T08:45:41.796Z,9.63
2019-02-25T08:48:12.531Z,6.90
2019-02-25T08:50:41.643Z,7.23
2019-02-25T08:53:10.739Z,6.27
2019-02-25T08:56:04.628Z,8.63
2019-02-25T08:58:33.723Z,8.03
2019-02-25T09:01:03.275Z,5.90
2019-02-25T09:03:32.374Z,7.20
2019-02-25T09:06:03.162Z,11.20
2019-02-25T09:08:32.256Z,5.60
2019-02-25T09:11:02.579Z,7.93
2019-02-25T09:13:32.655Z,7.00
2019-02-25T09:16:03.429Z,6.07
2019-02-25T09:18:32.538Z,7.03
2019-02-25T09:21:03.379Z,6.90
2019-02-25T09:23:32.479Z,6.53
2019-02-25T09:26:03.339Z,6.93
2019-02-25T09:28:33.011Z,6.87
2019-02-25T09:31:02.205Z,7.90
2019-02-25T09:33:31.411Z,6.67
2019-02-25T09:36:00.507Z,8.00
2019-02-25T09:38:29.922Z,6.33
2019-02-25T09:40:59.007Z,5.60
2019-02-25T09:43:28.111Z,9.50
2019-02-25T09:45:57.209Z,5.53
2019-02-25T09:48:26.320Z,5.47
2019-02-25T09:50:55.411Z,6.60
2019-02-25T09:53:24.505Z,5.80
2019-02-25T09:55:53.619Z,6.60
2019-02-25T09:58:22.713Z,7.90
2019-02-25T10:00:51.823Z,6.50
2019-02-25T10:03:20.911Z,5.90
2019-02-25T10:05:50.024Z,6.90
2019-02-25T10:08:19.115Z,5.53
2019-02-25T10:10:48.227Z,5.53
2019-02-25T10:13:17.355Z,6.10
2019-02-25T10:15:46.446Z,5.00
2019-02-25T10:18:15.547Z,6.33
2019-02-25T10:20:44.669Z,7.13
2019-02-25T10:23:13.756Z,5.10
2019-02-25T10:25:42.860Z,5.93
2019-02-25T10:28:11.970Z,6.63
2019-02-25T10:30:41.155Z,6.37
2019-02-25T10:33:10.243Z,6.33
2019-02-25T10:35:39.360Z,7.62
2019-02-25T10:38:08.454Z,7.30
2019-02-25T10:40:37.565Z,7.23
2019-02-25T10:43:06.651Z,7.23
2019-02-25T10:45:37.218Z,7.33
2019-02-25T10:48:06.576Z,8.07
2019-02-25T10:50:36.063Z,7.13
2019-02-25T10:53:06.488Z,8.17
2019-02-25T10:55:40.062Z,8.87
2019-02-25T10:58:10.999Z,7.70
2019-02-25T11:00:43.438Z,8.00
2019-02-25T11:03:13.460Z,11.23
2019-02-25T11:05:43.360Z,12.83
2019-02-25T11:08:14.115Z,10.57
2019-02-25T11:10:46.928Z,8.10
2019-02-25T11:13:15.915Z,8.60
2019-02-25T11:15:46.680Z,8.20
2019-02-25T11:18:17.466Z,7.70
2019-02-25T11:20:46.647Z,9.33
2019-02-25T11:23:17.640Z,7.93
2019-02-25T11:25:46.567Z,7.17
2019-02-25T11:28:24.883Z,9.67
2019-02-25T11:30:47.558Z,7.90
2019-02-25T11:33:17.283Z,8.67
2019-02-25T11:35:48.079Z,7.10
2019-02-25T11:38:17.401Z,10.93
2019-02-25T11:40:46.502Z,8.47
2019-02-25T11:43:16.693Z,7.70
2019-02-25T11:45:46.427Z,6.47
2019-02-25T11:48:15.543Z,5.07
2019-02-25T11:50:44.884Z,5.20
2019-02-25T11:53:14.040Z,6.60
2019-02-25T11:55:43.156Z,4.80
2019-02-25T11:58:12.595Z,4.93
2019-02-25T12:00:41.719Z,5.33
2019-02-25T12:03:10.991Z,5.37
2019-02-25T12:05:40.106Z,4.80
2019-02-25T12:08:09.199Z,5.70
2019-02-25T12:10:38.317Z,4.43
2019-02-25T12:13:07.435Z,5.90
2019-02-25T12:15:36.535Z,5.57
2019-02-25T12:18:05.654Z,5.40
2019-02-25T12:20:34.747Z,4.20
2019-02-25T12:23:04.123Z,6.20
2019-02-25T12:25:33.239Z,4.93
2019-02-25T12:28:02.799Z,5.97
2019-02-25T12:30:32.183Z,6.37
2019-02-25T12:33:02.611Z,7.90
2019-02-25T12:35:31.828Z,7.43
2019-02-25T12:38:00.923Z,5.70
2019-02-25T12:40:30.039Z,5.77
2019-02-25T12:42:59.140Z,7.30
2019-02-25T12:45:28.261Z,5.47
2019-02-25T12:47:58.624Z,6.63
2019-02-25T12:50:27.739Z,6.03
2019-02-25T12:52:56.836Z,6.43
2019-02-25T12:55:25.947Z,5.97
2019-02-25T12:57:55.072Z,5.73
2019-02-25T13:00:24.639Z,6.23
2019-02-25T13:02:53.764Z,6.43
2019-02-25T13:05:24.771Z,5.87
2019-02-25T13:07:53.891Z,7.37
2019-02-25T13:10:23.034Z,7.40
2019-02-25T13:12:52.162Z,5.03
2019-02-25T13:15:24.936Z,5.17
2019-02-25T13:17:54.339Z,5.77
2019-02-25T13:20:23.467Z,6.37
2019-02-25T13:22:52.565Z,4.57
2019-02-25T13:25:30.051Z,5.40
2019-02-25T13:28:01.325Z,5.93
2019-02-25T13:30:30.051Z,7.10
2019-02-25T13:32:59.187Z,5.63
2019-02-25T13:35:28.307Z,21.33
2019-02-25T13:37:57.432Z,13.17
2019-02-25T13:40:26.555Z,7.17
2019-02-25T13:42:55.827Z,6.70
2019-02-25T13:45:26.025Z,6.83
2019-02-25T13:47:55.274Z,6.97
2019-02-25T13:50:25.075Z,7.60
2019-02-25T13:52:54.255Z,5.83
2019-02-25T13:55:24.023Z,6.80
2019-02-25T13:57:53.739Z,8.67
2019-02-25T14:00:28.149Z,7.53
2019-02-25T14:02:58.311Z,5.63
2019-02-25T14:05:27.479Z,5.60
2019-02-25T14:07:56.603Z,6.60
2019-02-25T14:10:25.699Z,5.97
2019-02-25T14:12:55.667Z,5.53
2019-02-25T14:15:25.298Z,6.87
2019-02-25T14:17:54.475Z,6.73
2019-02-25T14:20:25.615Z,6.63
2019-02-25T14:22:54.816Z,9.30
2019-02-25T14:25:31.011Z,5.80
2019-02-25T14:28:02.572Z,5.60
2019-02-25T14:30:33.529Z,5.80
2019-02-25T14:33:01.847Z,9.17
2019-02-25T14:35:33.713Z,6.90
2019-02-25T14:38:09.719Z,8.20
2019-02-25T14:40:39.371Z,6.90
2019-02-25T14:43:10.493Z,7.97
2019-02-25T14:45:42.030Z,6.63
2019-02-25T14:48:10.776Z,8.90
2019-02-25T14:50:41.140Z,6.47
2019-02-25T14:53:14.414Z,7.43
2019-02-25T14:55:44.827Z,8.97
2019-02-25T14:58:15.510Z,7.83
2019-02-25T15:00:44.166Z,7.43
2019-02-25T15:03:13.355Z,8.77
2019-02-25T15:05:42.734Z,6.77
2019-02-25T15:08:11.843Z,7.87
2019-02-25T15:10:42.835Z,6.13
2019-02-25T15:13:12.134Z,8.70
2019-02-25T15:15:43.060Z,6.47
2019-02-25T15:18:12.061Z,7.87
2019-02-25T15:20:41.191Z,7.03
2019-02-25T15:23:12.552Z,5.07
2019-02-25T15:25:43.201Z,6.60
2019-02-25T15:28:13.636Z,6.37
2019-02-25T15:30:42.894Z,8.53
2019-02-25T15:33:12.143Z,10.73
2019-02-25T15:35:42.114Z,11.37
2019-02-25T15:38:12.086Z,9.80
2019-02-25T15:40:41.287Z,14.30
2019-02-25T15:43:13.346Z,19.10
2019-02-25T15:45:43.771Z,9.00
2019-02-25T15:48:18.346Z,7.97
2019-02-25T15:50:50.689Z,10.10
2019-02-25T15:53:19.611Z,8.43
2019-02-25T15:55:48.711Z,9.10
2019-02-25T15:58:18.163Z,7.03
2019-02-25T16:00:47.459Z,7.97
2019-02-25T16:03:20.285Z,6.20
2019-02-25T16:05:47.499Z,9.10
2019-02-25T16:08:19.038Z,9.37
2019-02-25T16:10:49.569Z,6.97
2019-02-25T16:13:18.443Z,6.83
2019-02-25T16:15:47.623Z,6.57
2019-02-25T16:18:16.734Z,10.33
2019-02-25T16:20:46.274Z,8.73
2019-02-25T16:23:15.867Z,11.73
2019-02-25T16:25:46.214Z,10.67
2019-02-25T16:28:17.482Z,12.83
2019-02-25T16:30:47.418Z,13.97
2019-02-25T16:33:17.700Z,7.43
2019-02-25T16:35:46.885Z,8.50
2019-02-25T16:38:16.179Z,8.23
2019-02-25T16:40:45.298Z,8.40
2019-02-25T16:43:14.491Z,11.03
2019-02-25T16:45:46.457Z,20.30
2019-02-25T16:48:14.816Z,14.47
2019-02-25T16:50:46.314Z,58.10
2019-02-25T16:53:16.090Z,15.87
2019-02-25T16:55:47.018Z,7.50
2019-02-25T16:58:16.612Z,6.83
2019-02-25T17:00:45.788Z,7.33
2019-02-25T17:03:16.084Z,10.40
2019-02-25T17:05:47.689Z,9.37
2019-02-25T17:08:17.806Z,11.17
2019-02-25T17:10:48.975Z,18.07
2019-02-25T17:13:17.805Z,20.07
2019-02-25T17:15:46.920Z,21.97
2019-02-25T17:18:16.112Z,16.10
2019-02-25T17:20:49.704Z,13.27
2019-02-25T17:23:17.640Z,11.93
2019-02-25T17:25:46.783Z,8.80
2019-02-25T17:28:18.069Z,9.70
2019-02-25T17:30:47.404Z,9.93
2019-02-25T17:33:17.529Z,10.60
2019-02-25T17:35:47.618Z,10.63
2019-02-25T17:38:18.119Z,8.20
2019-02-25T17:40:48.393Z,9.67
2019-02-25T17:43:18.427Z,15.00
2019-02-25T17:45:48.340Z,11.73
2019-02-25T17:48:18.680Z,11.83
2019-02-25T17:50:48.317Z,11.53
2019-02-25T17:53:17.568Z,10.17
2019-02-25T17:55:48.854Z,8.77
2019-02-25T17:58:19.328Z,10.97
2019-02-25T18:00:57.063Z,10.30
2019-02-25T18:03:26.936Z,11.17
2019-02-25T18:05:56.902Z,10.53
2019-02-25T18:08:28.078Z,10.20
2019-02-25T18:10:58.087Z,15.37
2019-02-25T18:13:28.137Z,14.07
2019-02-25T18:15:58.369Z,17.33
2019-02-25T18:18:27.468Z,15.73
2019-02-25T18:20:56.632Z,17.67
2019-02-25T18:23:25.740Z,15.97
2019-02-25T18:25:58.105Z,16.50
2019-02-25T18:28:25.968Z,14.90
2019-02-25T18:30:55.403Z,16.50
2019-02-25T18:33:26.438Z,17.27
2019-02-25T18:35:55.363Z,18.13
2019-02-25T18:38:25.150Z,16.80
2019-02-25T18:40:54.995Z,18.07
2019-02-25T18:43:24.731Z,17.00
2019-02-25T18:45:56.244Z,13.03
2019-02-25T18:48:27.348Z,14.73
2019-02-25T18:50:58.964Z,11.83
2019-02-25T18:53:27.540Z,13.00
2019-02-25T18:55:56.831Z,12.43
2019-02-25T18:58:26.423Z,12.30
2019-02-25T19:00:57.202Z,11.70
2019-02-25T19:03:26.947Z,12.43
2019-02-25T19:05:57.461Z,11.30
2019-02-25T19:08:28.948Z,13.23
2019-02-25T19:10:58.256Z,10.10
2019-02-25T19:13:28.240Z,9.23
2019-02-25T19:15:59.290Z,10.00
2019-02-25T19:18:29.433Z,12.37
2019-02-25T19:21:01.895Z,10.27
2019-02-25T19:23:33.092Z,9.10
2019-02-25T19:26:01.895Z,9.67
2019-02-25T19:28:31.124Z,11.33
2019-02-25T19:31:00.295Z,13.03
2019-02-25T19:33:31.211Z,12.67
2019-02-25T19:36:01.263Z,11.73
2019-02-25T19:38:34.061Z,13.07
2019-02-25T19:41:02.170Z,11.77
2019-02-25T19:43:31.895Z,13.40
2019-02-25T19:46:01.825Z,11.27
2019-02-25T19:48:33.480Z,11.60
2019-02-25T19:51:04.235Z,9.53
2019-02-25T19:53:34.231Z,10.37
2019-02-25T19:56:04.532Z,11.53
2019-02-25T19:58:35.882Z,11.03
2019-02-25T20:01:06.105Z,10.67
2019-02-25T20:03:37.410Z,12.90
2019-02-25T20:06:11.203Z,13.53
2019-02-25T20:08:38.215Z,12.10
2019-02-25T20:11:09.238Z,12.53
2019-02-25T20:13:38.163Z,10.83
2019-02-25T20:16:08.226Z,10.97
2019-02-25T20:18:39.838Z,9.67
2019-02-25T20:21:09.002Z,12.60
2019-02-25T20:23:38.103Z,13.07
2019-02-25T20:26:07.256Z,11.73
2019-02-25T20:28:36.395Z,11.30
2019-02-25T20:31:06.162Z,12.03
2019-02-25T20:33:37.521Z,12.40
2019-02-25T20:36:07.143Z,11.63
2019-02-25T20:38:37.272Z,13.07
2019-02-25T20:41:07.082Z,11.60
2019-02-25T20:43:36.207Z,10.90
2019-02-25T20:46:06.020Z,12.03
2019-02-25T20:48:35.640Z,13.53
2019-02-25T20:51:06.741Z,11.50
2019-02-25T20:53:37.705Z,14.63
2019-02-25T20:56:06.433Z,11.63
2019-02-25T20:58:36.119Z,12.93
2019-02-25T21:01:09.213Z,11.37
2019-02-25T21:03:41.502Z,12.47
2019-02-25T21:06:09.828Z,11.87
2019-02-25T21:08:40.063Z,10.23
2019-02-25T21:11:11.176Z,12.03
2019-02-25T21:13:40.431Z,10.20
2019-02-25T21:16:10.514Z,11.57
2019-02-25T21:18:40.352Z,10.63
2019-02-25T21:21:11.859Z,11.03
2019-02-25T21:23:40.367Z,8.77
2019-02-25T21:26:11.406Z,9.10
2019-02-25T21:28:42.657Z,10.43
2019-02-25T21:31:13.928Z,11.03
2019-02-25T21:33:44.835Z,11.83
2019-02-25T21:36:12.745Z,13.70
2019-02-25T21:38:42.935Z,18.60
2019-02-25T21:41:13.703Z,19.37
2019-02-25T21:43:43.544Z,18.57
2019-02-25T21:46:17.859Z,20.27
2019-02-25T21:48:46.142Z,18.00
2019-02-25T21:51:15.703Z,20.07
2019-02-25T21:53:44.903Z,17.97
2019-02-25T21:56:14.029Z,19.00
2019-02-25T21:58:45.101Z,17.63
2019-02-25T22:01:13.971Z,17.40
2019-02-25T22:03:45.911Z,19.23
2019-02-25T22:06:13.915Z,17.10
2019-02-25T22:08:43.011Z,15.17
2019-02-25T22:11:15.072Z,12.53
2019-02-25T22:13:42.939Z,14.07
2019-02-25T22:16:12.059Z,11.40
2019-02-25T22:18:41.177Z,10.90
2019-02-25T22:21:12.227Z,11.63
2019-02-25T22:23:41.087Z,11.87
2019-02-25T22:26:10.183Z,12.93
2019-02-25T22:28:39.523Z,13.97
2019-02-25T22:31:10.976Z,12.20
2019-02-25T22:33:39.516Z,12.97
2019-02-25T22:36:08.617Z,12.03
2019-02-25T22:38:37.739Z,11.80
2019-02-25T22:41:06.879Z,13.67
2019-02-25T22:43:36.893Z,11.33
2019-02-25T22:46:08.978Z,9.67
2019-02-25T22:48:39.734Z,11.13
2019-02-25T22:51:08.734Z,10.20
2019-02-25T22:53:37.855Z,8.63
2019-02-25T22:56:11.389Z,10.50
2019-02-25T22:58:39.032Z,10.70
2019-02-25T23:01:14.849Z,13.97
2019-02-25T23:03:44.944Z,10.60
2019-02-25T23:06:13.550Z,8.17
2019-02-25T23:08:44.298Z,9.20
2019-02-25T23:11:16.736Z,8.47
2019-02-25T23:13:47.883Z,9.17
